sensor_id;sensor_type;location;lat;lon;timestamp;temperature;humidity
36818;DHT22;22761;51.542;16.450;2022-09-09T00:04:27;15.98;93.84
36818;DHT22;22761;51.542;16.450;2022-09-09T00:07:25;16.01;93.84
36818;DHT22;22761;51.542;16.450;2022-09-09T00:10:03;16.00;93.50
36818;DHT22;22761;51.542;16.450;2022-09-09T00:13:05;15.98;93.30
36818;DHT22;22761;51.542;16.450;2022-09-09T00:15:47;15.97;93.22
36818;DHT22;22761;51.542;16.450;2022-09-09T00:18:26;15.97;93.32
36818;DHT22;22761;51.542;16.450;2022-09-09T00:21:03;15.98;93.29
36818;DHT22;22761;51.542;16.450;2022-09-09T00:23:35;15.98;93.19
36818;DHT22;22761;51.542;16.450;2022-09-09T00:27:06;15.95;93.17
36818;DHT22;22761;51.542;16.450;2022-09-09T00:29:43;15.98;93.20
36818;DHT22;22761;51.542;16.450;2022-09-09T00:32:18;16.01;93.18
36818;DHT22;22761;51.542;16.450;2022-09-09T00:35:00;15.97;92.78
36818;DHT22;22761;51.542;16.450;2022-09-09T00:37:29;15.95;92.79
36818;DHT22;22761;51.542;16.450;2022-09-09T00:40:02;15.95;92.75
36818;DHT22;22761;51.542;16.450;2022-09-09T00:42:42;15.90;92.32
36818;DHT22;22761;51.542;16.450;2022-09-09T00:48:10;15.84;92.13
36818;DHT22;22761;51.542;16.450;2022-09-09T00:51:01;15.81;92.32
36818;DHT22;22761;51.542;16.450;2022-09-09T00:54:22;15.81;92.63
36818;DHT22;22761;51.542;16.450;2022-09-09T01:02:41;15.83;92.83
36818;DHT22;22761;51.542;16.450;2022-09-09T01:05:15;15.84;92.65
36818;DHT22;22761;51.542;16.450;2022-09-09T01:07:44;15.81;92.76
36818;DHT22;22761;51.542;16.450;2022-09-09T01:13:08;15.83;92.77
36818;DHT22;22761;51.542;16.450;2022-09-09T01:15:35;15.83;92.44
36818;DHT22;22761;51.542;16.450;2022-09-09T01:18:10;15.77;92.09
36818;DHT22;22761;51.542;16.450;2022-09-09T01:20:59;15.73;91.94
36818;DHT22;22761;51.542;16.450;2022-09-09T01:26:44;15.62;91.24
36818;DHT22;22761;51.542;16.450;2022-09-09T01:29:18;15.53;91.19
36818;DHT22;22761;51.542;16.450;2022-09-09T01:32:01;15.48;90.89
36818;DHT22;22761;51.542;16.450;2022-09-09T01:34:33;15.39;90.82
36818;DHT22;22761;51.542;16.450;2022-09-09T01:37:10;15.35;91.17
36818;DHT22;22761;51.542;16.450;2022-09-09T01:39:42;15.34;91.65
36818;DHT22;22761;51.542;16.450;2022-09-09T01:42:14;15.31;92.03
36818;DHT22;22761;51.542;16.450;2022-09-09T01:44:43;15.31;92.24
36818;DHT22;22761;51.542;16.450;2022-09-09T01:47:10;15.31;91.87
36818;DHT22;22761;51.542;16.450;2022-09-09T01:49:39;15.27;91.47
36818;DHT22;22761;51.542;16.450;2022-09-09T01:52:08;15.21;91.31
36818;DHT22;22761;51.542;16.450;2022-09-09T01:54:38;15.18;91.46
36818;DHT22;22761;51.542;16.450;2022-09-09T01:57:23;15.14;91.53
36818;DHT22;22761;51.542;16.450;2022-09-09T02:06:28;15.00;91.40
36818;DHT22;22761;51.542;16.450;2022-09-09T02:08:56;14.94;91.45
36818;DHT22;22761;51.542;16.450;2022-09-09T02:11:27;14.90;91.39
36818;DHT22;22761;51.542;16.450;2022-09-09T02:14:14;14.84;91.43
36818;DHT22;22761;51.542;16.450;2022-09-09T02:16:56;14.82;91.43
36818;DHT22;22761;51.542;16.450;2022-09-09T02:19:33;14.75;91.41
36818;DHT22;22761;51.542;16.450;2022-09-09T02:22:03;14.70;91.40
36818;DHT22;22761;51.542;16.450;2022-09-09T02:24:35;14.66;91.52
36818;DHT22;22761;51.542;16.450;2022-09-09T02:27:07;14.62;91.66
36818;DHT22;22761;51.542;16.450;2022-09-09T02:29:40;14.60;91.74
36818;DHT22;22761;51.542;16.450;2022-09-09T02:32:15;14.59;92.00
36818;DHT22;22761;51.542;16.450;2022-09-09T02:34:56;14.55;91.86
36818;DHT22;22761;51.542;16.450;2022-09-09T02:37:29;14.51;91.73
36818;DHT22;22761;51.542;16.450;2022-09-09T02:39:56;14.48;91.83
36818;DHT22;22761;51.542;16.450;2022-09-09T02:42:24;14.43;91.74
36818;DHT22;22761;51.542;16.450;2022-09-09T02:44:52;14.43;91.96
36818;DHT22;22761;51.542;16.450;2022-09-09T02:47:35;14.39;92.03
36818;DHT22;22761;51.542;16.450;2022-09-09T02:50:20;14.39;92.23
36818;DHT22;22761;51.542;16.450;2022-09-09T02:53:19;14.38;92.24
36818;DHT22;22761;51.542;16.450;2022-09-09T02:56:01;14.36;92.27
36818;DHT22;22761;51.542;16.450;2022-09-09T02:58:27;14.33;92.20
36818;DHT22;22761;51.542;16.450;2022-09-09T03:00:59;14.31;92.09
36818;DHT22;22761;51.542;16.450;2022-09-09T03:03:29;14.25;92.14
36818;DHT22;22761;51.542;16.450;2022-09-09T03:05:57;14.25;92.22
36818;DHT22;22761;51.542;16.450;2022-09-09T03:08:26;14.24;92.39
36818;DHT22;22761;51.542;16.450;2022-09-09T03:10:54;14.24;92.55
36818;DHT22;22761;51.542;16.450;2022-09-09T03:13:24;14.25;92.52
36818;DHT22;22761;51.542;16.450;2022-09-09T03:15:51;14.21;92.50
36818;DHT22;22761;51.542;16.450;2022-09-09T03:18:20;14.24;92.39
36818;DHT22;22761;51.542;16.450;2022-09-09T03:20:49;14.21;92.26
36818;DHT22;22761;51.542;16.450;2022-09-09T03:23:18;14.15;92.09
36818;DHT22;22761;51.542;16.450;2022-09-09T03:25:49;14.14;92.15
36818;DHT22;22761;51.542;16.450;2022-09-09T03:28:19;14.13;92.30
36818;DHT22;22761;51.542;16.450;2022-09-09T03:30:48;14.08;92.30
36818;DHT22;22761;51.542;16.450;2022-09-09T03:33:16;14.07;92.41
36818;DHT22;22761;51.542;16.450;2022-09-09T03:35:46;14.07;92.39
36818;DHT22;22761;51.542;16.450;2022-09-09T03:38:18;14.04;92.24
36818;DHT22;22761;51.542;16.450;2022-09-09T03:40:51;14.04;92.31
36818;DHT22;22761;51.542;16.450;2022-09-09T03:43:20;14.01;92.25
36818;DHT22;22761;51.542;16.450;2022-09-09T03:45:48;13.97;92.21
36818;DHT22;22761;51.542;16.450;2022-09-09T03:48:16;13.97;92.08
36818;DHT22;22761;51.542;16.450;2022-09-09T03:50:49;13.93;91.97
36818;DHT22;22761;51.542;16.450;2022-09-09T03:53:19;13.89;91.78
36818;DHT22;22761;51.542;16.450;2022-09-09T03:55:49;13.83;91.60
36818;DHT22;22761;51.542;16.450;2022-09-09T03:58:17;13.79;91.70
36818;DHT22;22761;51.542;16.450;2022-09-09T04:01:02;13.75;91.97
36818;DHT22;22761;51.542;16.450;2022-09-09T04:03:30;13.76;92.20
36818;DHT22;22761;51.542;16.450;2022-09-09T04:06:00;13.77;92.08
36818;DHT22;22761;51.542;16.450;2022-09-09T04:08:30;13.73;91.93
36818;DHT22;22761;51.542;16.450;2022-09-09T04:11:01;13.68;91.92
36818;DHT22;22761;51.542;16.450;2022-09-09T04:13:34;13.66;91.91
36818;DHT22;22761;51.542;16.450;2022-09-09T04:16:02;13.65;91.89
36818;DHT22;22761;51.542;16.450;2022-09-09T04:18:31;13.59;91.93
36818;DHT22;22761;51.542;16.450;2022-09-09T04:20:59;13.56;91.94
36818;DHT22;22761;51.542;16.450;2022-09-09T04:23:28;13.55;91.98
36818;DHT22;22761;51.542;16.450;2022-09-09T04:25:58;13.56;92.04
36818;DHT22;22761;51.542;16.450;2022-09-09T04:28:29;13.56;92.23
36818;DHT22;22761;51.542;16.450;2022-09-09T04:30:56;13.55;92.51
36818;DHT22;22761;51.542;16.450;2022-09-09T04:33:24;13.56;92.84
36818;DHT22;22761;51.542;16.450;2022-09-09T04:35:54;13.59;92.91
36818;DHT22;22761;51.542;16.450;2022-09-09T04:38:22;13.59;92.85
36818;DHT22;22761;51.542;16.450;2022-09-09T04:40:51;13.60;92.81
36818;DHT22;22761;51.542;16.450;2022-09-09T04:43:21;13.62;92.60
36818;DHT22;22761;51.542;16.450;2022-09-09T04:45:50;13.56;92.34
36818;DHT22;22761;51.542;16.450;2022-09-09T04:48:21;13.55;92.52
36818;DHT22;22761;51.542;16.450;2022-09-09T04:51:06;13.52;92.80
36818;DHT22;22761;51.542;16.450;2022-09-09T04:53:36;13.56;93.00
36818;DHT22;22761;51.542;16.450;2022-09-09T04:56:11;13.56;92.80
36818;DHT22;22761;51.542;16.450;2022-09-09T04:58:41;13.53;92.51
36818;DHT22;22761;51.542;16.450;2022-09-09T05:01:16;13.49;92.38
36818;DHT22;22761;51.542;16.450;2022-09-09T05:03:46;13.43;92.36
36818;DHT22;22761;51.542;16.450;2022-09-09T05:06:19;13.39;92.26
36818;DHT22;22761;51.542;16.450;2022-09-09T05:08:47;13.35;92.30
36818;DHT22;22761;51.542;16.450;2022-09-09T05:11:26;13.34;92.33
36818;DHT22;22761;51.542;16.450;2022-09-09T05:13:56;13.31;92.45
36818;DHT22;22761;51.542;16.450;2022-09-09T05:16:23;13.31;92.59
36818;DHT22;22761;51.542;16.450;2022-09-09T05:18:51;13.32;92.97
36818;DHT22;22761;51.542;16.450;2022-09-09T05:21:22;13.39;93.41
36818;DHT22;22761;51.542;16.450;2022-09-09T05:23:49;13.45;93.74
36818;DHT22;22761;51.542;16.450;2022-09-09T05:26:21;13.53;94.10
36818;DHT22;22761;51.542;16.450;2022-09-09T05:28:48;13.60;94.04
36818;DHT22;22761;51.542;16.450;2022-09-09T05:31:17;13.69;94.25
36818;DHT22;22761;51.542;16.450;2022-09-09T05:33:49;13.76;94.28
36818;DHT22;22761;51.542;16.450;2022-09-09T05:36:19;13.82;94.35
36818;DHT22;22761;51.542;16.450;2022-09-09T05:38:48;13.87;94.36
36818;DHT22;22761;51.542;16.450;2022-09-09T05:41:17;13.93;94.39
36818;DHT22;22761;51.542;16.450;2022-09-09T05:43:45;13.96;94.43
36818;DHT22;22761;51.542;16.450;2022-09-09T05:46:17;14.03;94.49
36818;DHT22;22761;51.542;16.450;2022-09-09T05:48:46;14.08;94.54
36818;DHT22;22761;51.542;16.450;2022-09-09T05:51:16;14.17;94.64
36818;DHT22;22761;51.542;16.450;2022-09-09T05:53:45;14.24;94.50
36818;DHT22;22761;51.542;16.450;2022-09-09T05:56:16;14.31;94.65
36818;DHT22;22761;51.542;16.450;2022-09-09T05:58:50;14.38;94.70
36818;DHT22;22761;51.542;16.450;2022-09-09T06:01:28;14.45;94.69
36818;DHT22;22761;51.542;16.450;2022-09-09T06:03:59;14.52;94.68
36818;DHT22;22761;51.542;16.450;2022-09-09T06:06:32;14.59;94.69
36818;DHT22;22761;51.542;16.450;2022-09-09T06:09:04;14.65;94.67
36818;DHT22;22761;51.542;16.450;2022-09-09T06:11:35;14.70;94.55
36818;DHT22;22761;51.542;16.450;2022-09-09T06:14:04;14.75;94.44
36818;DHT22;22761;51.542;16.450;2022-09-09T06:16:32;14.79;94.28
36818;DHT22;22761;51.542;16.450;2022-09-09T06:19:00;14.80;94.14
36818;DHT22;22761;51.542;16.450;2022-09-09T06:21:33;14.86;94.12
36818;DHT22;22761;51.542;16.450;2022-09-09T06:24:02;14.90;94.15
36818;DHT22;22761;51.542;16.450;2022-09-09T06:26:37;14.93;94.19
36818;DHT22;22761;51.542;16.450;2022-09-09T06:29:03;15.01;94.30
36818;DHT22;22761;51.542;16.450;2022-09-09T06:31:32;15.08;94.21
36818;DHT22;22761;51.542;16.450;2022-09-09T06:34:06;15.12;94.25
36818;DHT22;22761;51.542;16.450;2022-09-09T06:36:37;15.17;94.28
36818;DHT22;22761;51.542;16.450;2022-09-09T06:39:06;15.22;94.31
36818;DHT22;22761;51.542;16.450;2022-09-09T06:41:35;15.29;94.15
36818;DHT22;22761;51.542;16.450;2022-09-09T06:44:03;15.32;94.01
36818;DHT22;22761;51.542;16.450;2022-09-09T06:46:33;15.38;93.94
36818;DHT22;22761;51.542;16.450;2022-09-09T06:49:03;15.39;93.90
36818;DHT22;22761;51.542;16.450;2022-09-09T06:51:36;15.46;94.01
36818;DHT22;22761;51.542;16.450;2022-09-09T06:54:05;15.53;94.08
36818;DHT22;22761;51.542;16.450;2022-09-09T06:56:36;15.59;94.10
36818;DHT22;22761;51.542;16.450;2022-09-09T06:59:06;15.65;94.11
36818;DHT22;22761;51.542;16.450;2022-09-09T07:01:38;15.70;94.16
36818;DHT22;22761;51.542;16.450;2022-09-09T07:04:10;15.78;94.26
36818;DHT22;22761;51.542;16.450;2022-09-09T07:06:43;15.85;94.45
36818;DHT22;22761;51.542;16.450;2022-09-09T07:09:14;15.95;94.53
36818;DHT22;22761;51.542;16.450;2022-09-09T07:11:48;16.02;94.44
36818;DHT22;22761;51.542;16.450;2022-09-09T07:14:16;16.11;94.35
36818;DHT22;22761;51.542;16.450;2022-09-09T07:16:48;16.21;94.23
36818;DHT22;22761;51.542;16.450;2022-09-09T07:19:17;16.27;93.84
36818;DHT22;22761;51.542;16.450;2022-09-09T07:21:44;16.33;93.79
36818;DHT22;22761;51.542;16.450;2022-09-09T07:24:13;16.43;93.66
36818;DHT22;22761;51.542;16.450;2022-09-09T07:26:41;16.50;93.31
36818;DHT22;22761;51.542;16.450;2022-09-09T07:29:09;16.59;93.06
36818;DHT22;22761;51.542;16.450;2022-09-09T07:31:39;16.63;92.63
36818;DHT22;22761;51.542;16.450;2022-09-09T07:34:08;16.68;91.76
36818;DHT22;22761;51.542;16.450;2022-09-09T07:36:39;16.74;91.35
36818;DHT22;22761;51.542;16.450;2022-09-09T07:39:11;16.77;90.68
36818;DHT22;22761;51.542;16.450;2022-09-09T07:41:48;16.83;90.32
36818;DHT22;22761;51.542;16.450;2022-09-09T07:44:21;16.87;89.93
36818;DHT22;22761;51.542;16.450;2022-09-09T07:46:51;16.92;89.38
36818;DHT22;22761;51.542;16.450;2022-09-09T07:49:20;16.94;89.66
36818;DHT22;22761;51.542;16.450;2022-09-09T07:51:48;17.00;90.14
36818;DHT22;22761;51.542;16.450;2022-09-09T07:54:19;17.07;89.52
36818;DHT22;22761;51.542;16.450;2022-09-09T07:56:57;17.11;89.85
36818;DHT22;22761;51.542;16.450;2022-09-09T07:59:30;17.19;89.56
36818;DHT22;22761;51.542;16.450;2022-09-09T08:02:03;17.26;89.25
36818;DHT22;22761;51.542;16.450;2022-09-09T08:04:38;17.33;89.65
36818;DHT22;22761;51.542;16.450;2022-09-09T08:07:46;17.45;89.24
36818;DHT22;22761;51.542;16.450;2022-09-09T08:10:49;17.52;88.89
36818;DHT22;22761;51.542;16.450;2022-09-09T08:13:17;17.62;88.55
36818;DHT22;22761;51.542;16.450;2022-09-09T08:15:46;17.67;88.13
36818;DHT22;22761;51.542;16.450;2022-09-09T08:18:14;17.74;88.57
36818;DHT22;22761;51.542;16.450;2022-09-09T08:21:11;17.84;88.17
36818;DHT22;22761;51.542;16.450;2022-09-09T08:24:19;17.94;87.91
36818;DHT22;22761;51.542;16.450;2022-09-09T08:27:40;18.02;87.99
36818;DHT22;22761;51.542;16.450;2022-09-09T08:30:20;18.13;88.13
36818;DHT22;22761;51.542;16.450;2022-09-09T08:32:53;18.23;86.96
36818;DHT22;22761;51.542;16.450;2022-09-09T08:35:24;18.32;86.91
36818;DHT22;22761;51.542;16.450;2022-09-09T08:37:54;18.39;86.78
36818;DHT22;22761;51.542;16.450;2022-09-09T08:40:24;18.47;87.39
36818;DHT22;22761;51.542;16.450;2022-09-09T08:42:54;18.52;83.91
36818;DHT22;22761;51.542;16.450;2022-09-09T08:45:55;18.56;84.36
36818;DHT22;22761;51.542;16.450;2022-09-09T08:48:44;18.63;83.01
36818;DHT22;22761;51.542;16.450;2022-09-09T08:51:13;18.70;82.17
36818;DHT22;22761;51.542;16.450;2022-09-09T08:53:48;18.74;83.65
36818;DHT22;22761;51.542;16.450;2022-09-09T08:56:24;18.84;82.43
36818;DHT22;22761;51.542;16.450;2022-09-09T08:58:55;18.91;82.33
36818;DHT22;22761;51.542;16.450;2022-09-09T09:04:48;19.16;81.57
36818;DHT22;22761;51.542;16.450;2022-09-09T09:10:01;19.39;78.83
36818;DHT22;22761;51.542;16.450;2022-09-09T09:12:35;19.53;79.10
36818;DHT22;22761;51.542;16.450;2022-09-09T09:15:02;19.60;78.93
36818;DHT22;22761;51.542;16.450;2022-09-09T09:17:32;19.64;78.80
36818;DHT22;22761;51.542;16.450;2022-09-09T09:20:00;19.75;79.39
36818;DHT22;22761;51.542;16.450;2022-09-09T09:22:50;19.82;78.48
36818;DHT22;22761;51.542;16.450;2022-09-09T09:25:23;19.92;79.31
36818;DHT22;22761;51.542;16.450;2022-09-09T09:28:02;20.05;78.34
36818;DHT22;22761;51.542;16.450;2022-09-09T09:30:35;20.17;78.41
36818;DHT22;22761;51.542;16.450;2022-09-09T09:35:54;20.47;75.66
36818;DHT22;22761;51.542;16.450;2022-09-09T09:38:25;20.60;76.43
36818;DHT22;22761;51.542;16.450;2022-09-09T09:40:56;20.77;73.78
36818;DHT22;22761;51.542;16.450;2022-09-09T09:43:34;20.92;74.73
36818;DHT22;22761;51.542;16.450;2022-09-09T09:46:05;21.03;73.07
36818;DHT22;22761;51.542;16.450;2022-09-09T09:48:34;21.09;73.76
36818;DHT22;22761;51.542;16.450;2022-09-09T09:51:12;21.19;74.17
36818;DHT22;22761;51.542;16.450;2022-09-09T09:53:38;21.33;73.67
36818;DHT22;22761;51.542;16.450;2022-09-09T09:56:11;21.46;71.32
36818;DHT22;22761;51.542;16.450;2022-09-09T09:58:51;21.62;70.83
36818;DHT22;22761;51.542;16.450;2022-09-09T10:01:29;21.75;69.83
36818;DHT22;22761;51.542;16.450;2022-09-09T10:04:24;21.84;70.20
36818;DHT22;22761;51.542;16.450;2022-09-09T10:06:34;21.96;68.16
36818;DHT22;22761;51.542;16.450;2022-09-09T10:09:25;22.06;70.19
36818;DHT22;22761;51.542;16.450;2022-09-09T10:12:20;22.27;70.98
36818;DHT22;22761;51.542;16.450;2022-09-09T10:26:51;23.25;65.63
36818;DHT22;22761;51.542;16.450;2022-09-09T10:29:49;23.54;64.18
36818;DHT22;22761;51.542;16.450;2022-09-09T10:32:56;23.84;64.87
36818;DHT22;22761;51.542;16.450;2022-09-09T10:38:38;24.57;62.62
36818;DHT22;22761;51.542;16.450;2022-09-09T10:41:18;24.88;61.39
36818;DHT22;22761;51.542;16.450;2022-09-09T10:44:21;25.13;61.32
36818;DHT22;22761;51.542;16.450;2022-09-09T10:55:27;26.06;54.15
36818;DHT22;22761;51.542;16.450;2022-09-09T10:57:58;26.03;54.57
36818;DHT22;22761;51.542;16.450;2022-09-09T11:00:40;26.03;56.01
36818;DHT22;22761;51.542;16.450;2022-09-09T11:03:26;26.17;56.07
36818;DHT22;22761;51.542;16.450;2022-09-09T11:06:06;26.34;52.86
36818;DHT22;22761;51.542;16.450;2022-09-09T11:08:38;26.48;52.25
36818;DHT22;22761;51.542;16.450;2022-09-09T11:14:02;26.78;49.53
36818;DHT22;22761;51.542;16.450;2022-09-09T11:19:35;26.75;50.29
36818;DHT22;22761;51.542;16.450;2022-09-09T11:25:26;27.12;49.09
36818;DHT22;22761;51.542;16.450;2022-09-09T11:28:14;27.13;47.57
36818;DHT22;22761;51.542;16.450;2022-09-09T11:37:33;27.33;48.36
36818;DHT22;22761;51.542;16.450;2022-09-09T11:40:25;27.51;45.68
36818;DHT22;22761;51.542;16.450;2022-09-09T11:43:11;27.53;47.13
36818;DHT22;22761;51.542;16.450;2022-09-09T11:45:41;27.56;47.10
36818;DHT22;22761;51.542;16.450;2022-09-09T11:48:32;27.67;45.59
36818;DHT22;22761;51.542;16.450;2022-09-09T11:51:04;27.64;46.50
36818;DHT22;22761;51.542;16.450;2022-09-09T11:53:33;27.69;46.53
36818;DHT22;22761;51.542;16.450;2022-09-09T11:56:12;27.86;45.04
36818;DHT22;22761;51.542;16.450;2022-09-09T11:58:55;28.01;44.35
36818;DHT22;22761;51.542;16.450;2022-09-09T12:01:36;28.02;44.79
36818;DHT22;22761;51.542;16.450;2022-09-09T12:06:58;28.30;43.56
36818;DHT22;22761;51.542;16.450;2022-09-09T12:09:52;28.44;45.19
36818;DHT22;22761;51.542;16.450;2022-09-09T12:12:37;28.61;43.54
36818;DHT22;22761;51.542;16.450;2022-09-09T12:17:45;28.58;44.89
36818;DHT22;22761;51.542;16.450;2022-09-09T12:28:22;29.05;43.93
36818;DHT22;22761;51.542;16.450;2022-09-09T12:31:20;29.23;43.22
36818;DHT22;22761;51.542;16.450;2022-09-09T12:33:46;29.37;42.88
36818;DHT22;22761;51.542;16.450;2022-09-09T12:36:21;29.47;44.04
36818;DHT22;22761;51.542;16.450;2022-09-09T12:38:49;29.53;42.44
36818;DHT22;22761;51.542;16.450;2022-09-09T12:41:24;29.50;44.28
36818;DHT22;22761;51.542;16.450;2022-09-09T12:44:04;29.50;44.12
36818;DHT22;22761;51.542;16.450;2022-09-09T12:46:37;29.53;44.45
36818;DHT22;22761;51.542;16.450;2022-09-09T12:49:35;29.54;42.83
36818;DHT22;22761;51.542;16.450;2022-09-09T12:52:32;29.58;42.74
36818;DHT22;22761;51.542;16.450;2022-09-09T12:55:03;29.65;43.06
36818;DHT22;22761;51.542;16.450;2022-09-09T12:57:38;29.69;40.80
36818;DHT22;22761;51.542;16.450;2022-09-09T13:00:20;29.71;42.90
36818;DHT22;22761;51.542;16.450;2022-09-09T13:03:13;29.79;42.17
36818;DHT22;22761;51.542;16.450;2022-09-09T13:05:40;29.84;41.79
36818;DHT22;22761;51.542;16.450;2022-09-09T13:08:10;29.82;41.81
36818;DHT22;22761;51.542;16.450;2022-09-09T13:10:52;29.71;43.52
36818;DHT22;22761;51.542;16.450;2022-09-09T13:13:38;29.62;43.94
36818;DHT22;22761;51.542;16.450;2022-09-09T13:16:25;29.48;41.58
36818;DHT22;22761;51.542;16.450;2022-09-09T13:18:47;29.43;41.16
36818;DHT22;22761;51.542;16.450;2022-09-09T13:21:16;29.41;41.54
36818;DHT22;22761;51.542;16.450;2022-09-09T13:23:50;29.44;42.04
36818;DHT22;22761;51.542;16.450;2022-09-09T13:26:26;29.43;43.50
36818;DHT22;22761;51.542;16.450;2022-09-09T13:28:54;29.25;43.17
36818;DHT22;22761;51.542;16.450;2022-09-09T13:31:29;29.11;43.14
36818;DHT22;22761;51.542;16.450;2022-09-09T13:33:59;28.96;43.72
36818;DHT22;22761;51.542;16.450;2022-09-09T13:36:31;28.72;44.43
36818;DHT22;22761;51.542;16.450;2022-09-09T13:39:03;28.52;45.80
36818;DHT22;22761;51.542;16.450;2022-09-09T13:41:44;28.44;46.81
36818;DHT22;22761;51.542;16.450;2022-09-09T13:44:31;28.29;45.61
36818;DHT22;22761;51.542;16.450;2022-09-09T13:49:43;27.84;45.32
36818;DHT22;22761;51.542;16.450;2022-09-09T13:52:19;27.51;46.60
36818;DHT22;22761;51.542;16.450;2022-09-09T13:55:09;27.17;46.41
36818;DHT22;22761;51.542;16.450;2022-09-09T13:57:38;26.75;47.19
36818;DHT22;22761;51.542;16.450;2022-09-09T14:00:11;26.23;48.40
36818;DHT22;22761;51.542;16.450;2022-09-09T14:02:41;25.70;49.94
36818;DHT22;22761;51.542;16.450;2022-09-09T14:05:11;25.23;50.30
36818;DHT22;22761;51.542;16.450;2022-09-09T14:07:41;24.74;52.51
36818;DHT22;22761;51.542;16.450;2022-09-09T14:10:11;24.28;53.35
36818;DHT22;22761;51.542;16.450;2022-09-09T14:12:43;23.92;54.41
36818;DHT22;22761;51.542;16.450;2022-09-09T14:15:12;23.64;55.73
36818;DHT22;22761;51.542;16.450;2022-09-09T14:17:39;23.40;57.20
36818;DHT22;22761;51.542;16.450;2022-09-09T14:20:09;23.27;57.56
36818;DHT22;22761;51.542;16.450;2022-09-09T14:22:40;23.13;57.74
36818;DHT22;22761;51.542;16.450;2022-09-09T14:25:10;23.05;58.17
36818;DHT22;22761;51.542;16.450;2022-09-09T14:27:41;23.02;58.27
36818;DHT22;22761;51.542;16.450;2022-09-09T14:30:10;23.10;55.79
36818;DHT22;22761;51.542;16.450;2022-09-09T14:32:40;23.23;55.90
36818;DHT22;22761;51.542;16.450;2022-09-09T14:35:10;23.30;54.74
36818;DHT22;22761;51.542;16.450;2022-09-09T14:37:39;23.38;55.27
36818;DHT22;22761;51.542;16.450;2022-09-09T14:40:10;23.48;54.24
36818;DHT22;22761;51.542;16.450;2022-09-09T14:42:46;23.64;54.48
36818;DHT22;22761;51.542;16.450;2022-09-09T14:45:19;23.74;55.19
36818;DHT22;22761;51.542;16.450;2022-09-09T14:47:50;23.88;54.48
36818;DHT22;22761;51.542;16.450;2022-09-09T14:50:19;23.98;55.83
36818;DHT22;22761;51.542;16.450;2022-09-09T14:52:47;24.02;55.83
36818;DHT22;22761;51.542;16.450;2022-09-09T14:55:14;24.02;56.35
36818;DHT22;22761;51.542;16.450;2022-09-09T14:57:43;24.00;56.34
36818;DHT22;22761;51.542;16.450;2022-09-09T15:00:12;24.02;56.24
36818;DHT22;22761;51.542;16.450;2022-09-09T15:02:39;23.99;56.09
36818;DHT22;22761;51.542;16.450;2022-09-09T15:05:07;24.00;56.21
36818;DHT22;22761;51.542;16.450;2022-09-09T15:07:35;24.06;56.09
36818;DHT22;22761;51.542;16.450;2022-09-09T15:10:04;24.13;55.38
36818;DHT22;22761;51.542;16.450;2022-09-09T15:12:31;24.16;55.65
36818;DHT22;22761;51.542;16.450;2022-09-09T15:15:00;24.21;55.87
36818;DHT22;22761;51.542;16.450;2022-09-09T15:17:28;24.28;55.00
36818;DHT22;22761;51.542;16.450;2022-09-09T15:19:56;24.28;54.94
36818;DHT22;22761;51.542;16.450;2022-09-09T15:22:23;24.19;55.98
36818;DHT22;22761;51.542;16.450;2022-09-09T15:24:52;24.09;56.02
36818;DHT22;22761;51.542;16.450;2022-09-09T15:27:19;24.06;56.34
36818;DHT22;22761;51.542;16.450;2022-09-09T15:29:47;24.08;56.80
36818;DHT22;22761;51.542;16.450;2022-09-09T15:32:14;24.03;56.03
36818;DHT22;22761;51.542;16.450;2022-09-09T15:34:41;24.06;56.29
36818;DHT22;22761;51.542;16.450;2022-09-09T15:37:10;24.10;56.32
36818;DHT22;22761;51.542;16.450;2022-09-09T15:39:41;24.15;56.83
36818;DHT22;22761;51.542;16.450;2022-09-09T15:42:08;24.19;56.90
36818;DHT22;22761;51.542;16.450;2022-09-09T15:44:44;24.26;56.64
36818;DHT22;22761;51.542;16.450;2022-09-09T15:47:11;24.34;56.74
36818;DHT22;22761;51.542;16.450;2022-09-09T15:49:42;24.37;56.86
36818;DHT22;22761;51.542;16.450;2022-09-09T15:52:10;24.37;57.69
36818;DHT22;22761;51.542;16.450;2022-09-09T15:54:38;24.37;57.74
36818;DHT22;22761;51.542;16.450;2022-09-09T15:57:09;24.37;58.29
36818;DHT22;22761;51.542;16.450;2022-09-09T15:59:36;24.30;58.81
36818;DHT22;22761;51.542;16.450;2022-09-09T16:02:03;24.21;59.61
36818;DHT22;22761;51.542;16.450;2022-09-09T16:04:32;24.10;59.13
36818;DHT22;22761;51.542;16.450;2022-09-09T16:07:04;24.03;59.21
36818;DHT22;22761;51.542;16.450;2022-09-09T16:09:32;23.95;59.39
36818;DHT22;22761;51.542;16.450;2022-09-09T16:12:02;23.85;60.20
36818;DHT22;22761;51.542;16.450;2022-09-09T16:14:31;23.78;60.46
36818;DHT22;22761;51.542;16.450;2022-09-09T16:17:02;23.71;62.50
36818;DHT22;22761;51.542;16.450;2022-09-09T16:19:31;23.60;61.61
36818;DHT22;22761;51.542;16.450;2022-09-09T16:21:58;23.51;61.51
36818;DHT22;22761;51.542;16.450;2022-09-09T16:24:26;23.43;61.95
36818;DHT22;22761;51.542;16.450;2022-09-09T16:26:54;23.32;62.54
36818;DHT22;22761;51.542;16.450;2022-09-09T16:29:23;23.23;63.42
36818;DHT22;22761;51.542;16.450;2022-09-09T16:31:51;23.16;65.08
36818;DHT22;22761;51.542;16.450;2022-09-09T16:34:19;23.05;66.17
36818;DHT22;22761;51.542;16.450;2022-09-09T16:36:47;22.93;66.64
36818;DHT22;22761;51.542;16.450;2022-09-09T16:39:19;22.85;67.67
36818;DHT22;22761;51.542;16.450;2022-09-09T16:41:47;22.72;68.20
36818;DHT22;22761;51.542;16.450;2022-09-09T16:44:16;22.56;67.59
36818;DHT22;22761;51.542;16.450;2022-09-09T16:46:47;22.41;68.17
36818;DHT22;22761;51.542;16.450;2022-09-09T16:49:20;22.30;68.88
36818;DHT22;22761;51.542;16.450;2022-09-09T16:51:50;22.16;69.65
36818;DHT22;22761;51.542;16.450;2022-09-09T16:54:20;22.08;70.32
36818;DHT22;22761;51.542;16.450;2022-09-09T16:56:49;21.95;70.72
36818;DHT22;22761;51.542;16.450;2022-09-09T16:59:19;21.81;71.08
36818;DHT22;22761;51.542;16.450;2022-09-09T17:01:50;21.69;71.64
36818;DHT22;22761;51.542;16.450;2022-09-09T17:04:21;21.58;71.98
36818;DHT22;22761;51.542;16.450;2022-09-09T17:06:53;21.46;72.85
36818;DHT22;22761;51.542;16.450;2022-09-09T17:09:21;21.34;73.11
36818;DHT22;22761;51.542;16.450;2022-09-09T17:11:50;21.23;73.90
36818;DHT22;22761;51.542;16.450;2022-09-09T17:14:20;21.12;74.22
36818;DHT22;22761;51.542;16.450;2022-09-09T17:16:48;21.03;74.68
36818;DHT22;22761;51.542;16.450;2022-09-09T17:19:16;20.94;74.65
36818;DHT22;22761;51.542;16.450;2022-09-09T17:21:44;20.84;74.60
36818;DHT22;22761;51.542;16.450;2022-09-09T17:24:13;20.74;74.92